sensor_id;sensor_type;location;lat;lon;timestamp;P1;durP1;ratioP1;P2;durP2;ratioP2
10281;SDS011;5186;59.472;18.048;2024-02-23T00:01:34;27.70;;;12.17;;
10281;SDS011;5186;59.472;18.048;2024-02-23T00:04:00;21.30;;;10.97;;
10281;SDS011;5186;59.472;18.048;2024-02-23T00:06:27;29.50;;;12.47;;
10281;SDS011;5186;59.472;18.048;2024-02-23T00:08:53;28.53;;;12.20;;
10281;SDS011;5186;59.472;18.048;2024-02-23T00:11:20;25.77;;;12.87;;
10281;SDS011;5186;59.472;18.048;2024-02-23T00:13:46;24.70;;;13.00;;
10281;SDS011;5186;59.472;18.048;2024-02-23T00:16:11;26.77;;;13.17;;
10281;SDS011;5186;59.472;18.048;2024-02-23T00:18:38;24.93;;;13.23;;
10281;SDS011;5186;59.472;18.048;2024-02-23T00:21:03;30.33;;;13.67;;
10281;SDS011;5186;59.472;18.048;2024-02-23T00:23:29;28.00;;;13.70;;
10281;SDS011;5186;59.472;18.048;2024-02-23T00:25:55;28.87;;;13.83;;
10281;SDS011;5186;59.472;18.048;2024-02-23T00:28:21;32.03;;;13.83;;
10281;SDS011;5186;59.472;18.048;2024-02-23T00:30:46;27.17;;;13.13;;
10281;SDS011;5186;59.472;18.048;2024-02-23T00:33:12;26.77;;;12.00;;
10281;SDS011;5186;59.472;18.048;2024-02-23T00:35:38;27.30;;;13.30;;
10281;SDS011;5186;59.472;18.048;2024-02-23T00:38:03;23.60;;;12.53;;
10281;SDS011;5186;59.472;18.048;2024-02-23T00:40:29;23.07;;;12.27;;
10281;SDS011;5186;59.472;18.048;2024-02-23T00:42:55;25.20;;;13.43;;
10281;SDS011;5186;59.472;18.048;2024-02-23T00:45:20;26.13;;;11.93;;
10281;SDS011;5186;59.472;18.048;2024-02-23T00:47:46;26.37;;;12.83;;
10281;SDS011;5186;59.472;18.048;2024-02-23T00:50:13;25.37;;;12.40;;
10281;SDS011;5186;59.472;18.048;2024-02-23T00:52:39;26.30;;;12.33;;
10281;SDS011;5186;59.472;18.048;2024-02-23T00:55:06;20.23;;;11.43;;
10281;SDS011;5186;59.472;18.048;2024-02-23T00:57:33;23.23;;;11.83;;
10281;SDS011;5186;59.472;18.048;2024-02-23T01:00:00;22.07;;;11.37;;
10281;SDS011;5186;59.472;18.048;2024-02-23T01:02:26;21.73;;;10.40;;
10281;SDS011;5186;59.472;18.048;2024-02-23T01:04:51;19.93;;;10.90;;
10281;SDS011;5186;59.472;18.048;2024-02-23T01:07:21;18.93;;;10.80;;
10281;SDS011;5186;59.472;18.048;2024-02-23T01:09:47;20.53;;;10.47;;
10281;SDS011;5186;59.472;18.048;2024-02-23T01:12:13;23.23;;;11.27;;
10281;SDS011;5186;59.472;18.048;2024-02-23T01:14:39;20.10;;;10.60;;
10281;SDS011;5186;59.472;18.048;2024-02-23T01:17:04;27.17;;;12.00;;
10281;SDS011;5186;59.472;18.048;2024-02-23T01:19:30;19.70;;;11.30;;
10281;SDS011;5186;59.472;18.048;2024-02-23T01:21:56;21.73;;;11.57;;
10281;SDS011;5186;59.472;18.048;2024-02-23T01:24:25;23.47;;;11.37;;
10281;SDS011;5186;59.472;18.048;2024-02-23T01:26:53;21.10;;;10.97;;
10281;SDS011;5186;59.472;18.048;2024-02-23T01:29:19;21.83;;;10.77;;
10281;SDS011;5186;59.472;18.048;2024-02-23T01:31:45;22.57;;;10.87;;
10281;SDS011;5186;59.472;18.048;2024-02-23T01:34:11;23.97;;;10.43;;
10281;SDS011;5186;59.472;18.048;2024-02-23T01:36:37;16.33;;;9.43;;
10281;SDS011;5186;59.472;18.048;2024-02-23T01:39:04;20.17;;;9.77;;
10281;SDS011;5186;59.472;18.048;2024-02-23T01:41:29;21.13;;;10.07;;
10281;SDS011;5186;59.472;18.048;2024-02-23T01:43:55;16.87;;;10.10;;
10281;SDS011;5186;59.472;18.048;2024-02-23T01:46:21;16.93;;;10.03;;
10281;SDS011;5186;59.472;18.048;2024-02-23T01:48:47;24.60;;;10.77;;
10281;SDS011;5186;59.472;18.048;2024-02-23T01:51:12;26.17;;;12.70;;
10281;SDS011;5186;59.472;18.048;2024-02-23T01:53:39;21.57;;;11.30;;
10281;SDS011;5186;59.472;18.048;2024-02-23T01:56:05;22.53;;;11.07;;
10281;SDS011;5186;59.472;18.048;2024-02-23T01:58:31;24.43;;;11.50;;
10281;SDS011;5186;59.472;18.048;2024-02-23T02:01:00;21.97;;;11.00;;
10281;SDS011;5186;59.472;18.048;2024-02-23T02:03:26;21.97;;;11.93;;
10281;SDS011;5186;59.472;18.048;2024-02-23T02:05:52;22.07;;;12.57;;
10281;SDS011;5186;59.472;18.048;2024-02-23T02:08:19;23.93;;;12.17;;
10281;SDS011;5186;59.472;18.048;2024-02-23T02:10:45;21.73;;;11.80;;
10281;SDS011;5186;59.472;18.048;2024-02-23T02:13:12;25.20;;;12.20;;
10281;SDS011;5186;59.472;18.048;2024-02-23T02:15:38;25.00;;;12.73;;
10281;SDS011;5186;59.472;18.048;2024-02-23T02:18:04;23.57;;;12.77;;
10281;SDS011;5186;59.472;18.048;2024-02-23T02:20:32;27.37;;;13.03;;
10281;SDS011;5186;59.472;18.048;2024-02-23T02:22:58;29.83;;;13.73;;
10281;SDS011;5186;59.472;18.048;2024-02-23T02:25:24;24.50;;;12.83;;
10281;SDS011;5186;59.472;18.048;2024-02-23T02:27:50;26.57;;;13.57;;
10281;SDS011;5186;59.472;18.048;2024-02-23T02:30:16;26.73;;;13.67;;
10281;SDS011;5186;59.472;18.048;2024-02-23T02:32:41;27.10;;;13.93;;
10281;SDS011;5186;59.472;18.048;2024-02-23T02:35:10;26.50;;;13.67;;
10281;SDS011;5186;59.472;18.048;2024-02-23T02:37:37;28.13;;;14.93;;
10281;SDS011;5186;59.472;18.048;2024-02-23T02:40:03;23.20;;;13.53;;
10281;SDS011;5186;59.472;18.048;2024-02-23T02:42:29;29.27;;;13.80;;
10281;SDS011;5186;59.472;18.048;2024-02-23T02:44:54;26.70;;;12.97;;
10281;SDS011;5186;59.472;18.048;2024-02-23T02:47:20;28.13;;;13.30;;
10281;SDS011;5186;59.472;18.048;2024-02-23T02:49:46;24.70;;;14.10;;
10281;SDS011;5186;59.472;18.048;2024-02-23T02:52:11;25.93;;;13.13;;
10281;SDS011;5186;59.472;18.048;2024-02-23T02:54:37;29.17;;;13.50;;
10281;SDS011;5186;59.472;18.048;2024-02-23T02:57:03;22.73;;;13.07;;
10281;SDS011;5186;59.472;18.048;2024-02-23T02:59:29;30.97;;;14.10;;
10281;SDS011;5186;59.472;18.048;2024-02-23T03:01:54;29.40;;;13.83;;
10281;SDS011;5186;59.472;18.048;2024-02-23T03:04:22;21.97;;;12.37;;
10281;SDS011;5186;59.472;18.048;2024-02-23T03:06:47;22.83;;;12.57;;
10281;SDS011;5186;59.472;18.048;2024-02-23T03:09:13;24.73;;;13.07;;
10281;SDS011;5186;59.472;18.048;2024-02-23T03:11:38;23.20;;;12.33;;
10281;SDS011;5186;59.472;18.048;2024-02-23T03:14:04;26.27;;;13.03;;
10281;SDS011;5186;59.472;18.048;2024-02-23T03:16:30;26.33;;;13.03;;
10281;SDS011;5186;59.472;18.048;2024-02-23T03:18:56;24.40;;;12.37;;
10281;SDS011;5186;59.472;18.048;2024-02-23T03:21:21;21.07;;;10.77;;
10281;SDS011;5186;59.472;18.048;2024-02-23T03:23:47;19.77;;;10.93;;
10281;SDS011;5186;59.472;18.048;2024-02-23T03:26:13;19.70;;;11.80;;
10281;SDS011;5186;59.472;18.048;2024-02-23T03:28:41;23.67;;;11.60;;
10281;SDS011;5186;59.472;18.048;2024-02-23T03:31:07;17.70;;;10.00;;
10281;SDS011;5186;59.472;18.048;2024-02-23T03:33:33;21.07;;;11.33;;
10281;SDS011;5186;59.472;18.048;2024-02-23T03:35:59;22.13;;;11.67;;
10281;SDS011;5186;59.472;18.048;2024-02-23T03:38:24;19.53;;;10.70;;
10281;SDS011;5186;59.472;18.048;2024-02-23T03:40:50;19.10;;;10.90;;
10281;SDS011;5186;59.472;18.048;2024-02-23T03:43:15;18.23;;;10.73;;
10281;SDS011;5186;59.472;18.048;2024-02-23T03:45:41;19.57;;;10.27;;
10281;SDS011;5186;59.472;18.048;2024-02-23T03:48:07;18.40;;;10.43;;
10281;SDS011;5186;59.472;18.048;2024-02-23T03:50:32;17.13;;;10.20;;
10281;SDS011;5186;59.472;18.048;2024-02-23T03:52:58;18.87;;;10.43;;
10281;SDS011;5186;59.472;18.048;2024-02-23T03:55:23;17.43;;;10.23;;
10281;SDS011;5186;59.472;18.048;2024-02-23T03:57:49;17.60;;;10.70;;
10281;SDS011;5186;59.472;18.048;2024-02-23T04:00:15;22.20;;;10.33;;
10281;SDS011;5186;59.472;18.048;2024-02-23T04:02:41;18.93;;;10.97;;
10281;SDS011;5186;59.472;18.048;2024-02-23T04:05:06;19.30;;;10.37;;
10281;SDS011;5186;59.472;18.048;2024-02-23T04:07:32;17.27;;;10.50;;
10281;SDS011;5186;59.472;18.048;2024-02-23T04:09:58;21.03;;;11.33;;
10281;SDS011;5186;59.472;18.048;2024-02-23T04:12:24;27.00;;;12.77;;
10281;SDS011;5186;59.472;18.048;2024-02-23T04:14:49;33.13;;;14.50;;
10281;SDS011;5186;59.472;18.048;2024-02-23T04:17:15;32.33;;;15.37;;
10281;SDS011;5186;59.472;18.048;2024-02-23T04:19:41;33.73;;;14.60;;
10281;SDS011;5186;59.472;18.048;2024-02-23T04:22:07;31.90;;;15.43;;
10281;SDS011;5186;59.472;18.048;2024-02-23T04:24:35;31.30;;;15.00;;
10281;SDS011;5186;59.472;18.048;2024-02-23T04:27:02;36.00;;;14.83;;
10281;SDS011;5186;59.472;18.048;2024-02-23T04:29:29;31.37;;;14.60;;
10281;SDS011;5186;59.472;18.048;2024-02-23T04:31:54;28.93;;;13.73;;
10281;SDS011;5186;59.472;18.048;2024-02-23T04:34:20;29.87;;;13.23;;
10281;SDS011;5186;59.472;18.048;2024-02-23T04:36:46;27.37;;;13.30;;
10281;SDS011;5186;59.472;18.048;2024-02-23T04:39:11;23.00;;;12.67;;
10281;SDS011;5186;59.472;18.048;2024-02-23T04:41:37;24.17;;;12.30;;
10281;SDS011;5186;59.472;18.048;2024-02-23T04:44:03;19.27;;;10.63;;
10281;SDS011;5186;59.472;18.048;2024-02-23T04:46:28;21.30;;;10.63;;
10281;SDS011;5186;59.472;18.048;2024-02-23T04:48:56;19.83;;;9.83;;
10281;SDS011;5186;59.472;18.048;2024-02-23T04:51:22;16.67;;;9.80;;
10281;SDS011;5186;59.472;18.048;2024-02-23T04:53:50;20.10;;;10.60;;
10281;SDS011;5186;59.472;18.048;2024-02-23T04:56:15;18.17;;;10.40;;
10281;SDS011;5186;59.472;18.048;2024-02-23T04:58:41;21.00;;;11.03;;
10281;SDS011;5186;59.472;18.048;2024-02-23T05:01:08;21.33;;;10.40;;
10281;SDS011;5186;59.472;18.048;2024-02-23T05:03:34;20.97;;;10.47;;
10281;SDS011;5186;59.472;18.048;2024-02-23T05:05:59;17.43;;;9.70;;
10281;SDS011;5186;59.472;18.048;2024-02-23T05:08:25;15.77;;;9.47;;
10281;SDS011;5186;59.472;18.048;2024-02-23T05:10:52;15.87;;;8.87;;
10281;SDS011;5186;59.472;18.048;2024-02-23T05:13:18;12.73;;;7.87;;
10281;SDS011;5186;59.472;18.048;2024-02-23T05:15:44;12.93;;;7.73;;
10281;SDS011;5186;59.472;18.048;2024-02-23T05:18:10;13.30;;;7.43;;
10281;SDS011;5186;59.472;18.048;2024-02-23T05:20:35;11.13;;;6.73;;
10281;SDS011;5186;59.472;18.048;2024-02-23T05:23:01;11.77;;;6.97;;
10281;SDS011;5186;59.472;18.048;2024-02-23T05:25:27;10.87;;;6.33;;
10281;SDS011;5186;59.472;18.048;2024-02-23T05:27:53;10.47;;;6.47;;
10281;SDS011;5186;59.472;18.048;2024-02-23T05:30:19;10.40;;;6.73;;
10281;SDS011;5186;59.472;18.048;2024-02-23T05:32:44;12.63;;;6.90;;
10281;SDS011;5186;59.472;18.048;2024-02-23T05:35:10;11.13;;;7.00;;
10281;SDS011;5186;59.472;18.048;2024-02-23T05:37:36;11.63;;;6.93;;
10281;SDS011;5186;59.472;18.048;2024-02-23T05:40:04;11.53;;;6.87;;
10281;SDS011;5186;59.472;18.048;2024-02-23T05:42:37;11.83;;;7.20;;
10281;SDS011;5186;59.472;18.048;2024-02-23T05:45:03;11.93;;;7.43;;
10281;SDS011;5186;59.472;18.048;2024-02-23T05:47:29;10.80;;;6.83;;
10281;SDS011;5186;59.472;18.048;2024-02-23T05:49:55;15.30;;;8.20;;
10281;SDS011;5186;59.472;18.048;2024-02-23T05:52:21;15.47;;;9.53;;
10281;SDS011;5186;59.472;18.048;2024-02-23T05:54:47;15.80;;;8.13;;
10281;SDS011;5186;59.472;18.048;2024-02-23T05:57:12;14.93;;;8.90;;
10281;SDS011;5186;59.472;18.048;2024-02-23T05:59:38;12.30;;;7.77;;
10281;SDS011;5186;59.472;18.048;2024-02-23T06:02:04;14.77;;;7.87;;
10281;SDS011;5186;59.472;18.048;2024-02-23T06:04:29;11.97;;;7.73;;
10281;SDS011;5186;59.472;18.048;2024-02-23T06:06:56;15.20;;;8.10;;
10281;SDS011;5186;59.472;18.048;2024-02-23T06:09:21;17.30;;;8.63;;
10281;SDS011;5186;59.472;18.048;2024-02-23T06:11:47;18.83;;;9.17;;
10281;SDS011;5186;59.472;18.048;2024-02-23T06:14:13;19.40;;;8.87;;
10281;SDS011;5186;59.472;18.048;2024-02-23T06:16:38;20.20;;;9.30;;
10281;SDS011;5186;59.472;18.048;2024-02-23T06:19:05;17.27;;;10.23;;
10281;SDS011;5186;59.472;18.048;2024-02-23T06:21:31;21.17;;;10.37;;
10281;SDS011;5186;59.472;18.048;2024-02-23T06:23:57;18.17;;;8.87;;
10281;SDS011;5186;59.472;18.048;2024-02-23T06:26:23;20.37;;;9.80;;
10281;SDS011;5186;59.472;18.048;2024-02-23T06:28:48;17.03;;;9.23;;
10281;SDS011;5186;59.472;18.048;2024-02-23T06:31:14;17.77;;;9.37;;
10281;SDS011;5186;59.472;18.048;2024-02-23T06:33:40;14.63;;;8.13;;
10281;SDS011;5186;59.472;18.048;2024-02-23T06:36:06;14.90;;;8.33;;
10281;SDS011;5186;59.472;18.048;2024-02-23T06:38:32;13.07;;;7.83;;
10281;SDS011;5186;59.472;18.048;2024-02-23T06:40:58;15.33;;;7.93;;
10281;SDS011;5186;59.472;18.048;2024-02-23T06:43:24;14.50;;;8.97;;
10281;SDS011;5186;59.472;18.048;2024-02-23T06:45:50;15.57;;;8.43;;
10281;SDS011;5186;59.472;18.048;2024-02-23T06:48:16;18.33;;;9.90;;
10281;SDS011;5186;59.472;18.048;2024-02-23T06:50:42;21.70;;;10.50;;
10281;SDS011;5186;59.472;18.048;2024-02-23T06:53:07;18.70;;;10.23;;
10281;SDS011;5186;59.472;18.048;2024-02-23T06:55:36;18.60;;;10.73;;
10281;SDS011;5186;59.472;18.048;2024-02-23T06:58:02;19.67;;;10.13;;
10281;SDS011;5186;59.472;18.048;2024-02-23T07:00:29;22.10;;;11.23;;
10281;SDS011;5186;59.472;18.048;2024-02-23T07:02:55;22.40;;;10.90;;
10281;SDS011;5186;59.472;18.048;2024-02-23T07:05:24;19.00;;;11.50;;
10281;SDS011;5186;59.472;18.048;2024-02-23T07:07:50;21.40;;;11.37;;
10281;SDS011;5186;59.472;18.048;2024-02-23T07:10:16;21.53;;;11.40;;
10281;SDS011;5186;59.472;18.048;2024-02-23T07:12:43;22.30;;;10.77;;
10281;SDS011;5186;59.472;18.048;2024-02-23T07:15:09;21.50;;;11.47;;
10281;SDS011;5186;59.472;18.048;2024-02-23T07:17:35;19.47;;;11.83;;
10281;SDS011;5186;59.472;18.048;2024-02-23T07:20:00;20.83;;;11.80;;
10281;SDS011;5186;59.472;18.048;2024-02-23T07:22:30;21.33;;;12.00;;
10281;SDS011;5186;59.472;18.048;2024-02-23T07:24:56;22.13;;;11.80;;
10281;SDS011;5186;59.472;18.048;2024-02-23T07:27:22;22.60;;;12.00;;
10281;SDS011;5186;59.472;18.048;2024-02-23T07:29:48;26.93;;;13.40;;
10281;SDS011;5186;59.472;18.048;2024-02-23T07:32:14;25.27;;;13.03;;
10281;SDS011;5186;59.472;18.048;2024-02-23T07:34:39;25.27;;;12.73;;
10281;SDS011;5186;59.472;18.048;2024-02-23T07:37:05;24.60;;;13.20;;
10281;SDS011;5186;59.472;18.048;2024-02-23T07:39:30;24.73;;;13.53;;
10281;SDS011;5186;59.472;18.048;2024-02-23T07:41:56;23.00;;;13.53;;
10281;SDS011;5186;59.472;18.048;2024-02-23T07:44:22;28.47;;;13.00;;
10281;SDS011;5186;59.472;18.048;2024-02-23T07:46:48;22.40;;;12.13;;
10281;SDS011;5186;59.472;18.048;2024-02-23T07:49:14;22.77;;;11.67;;
10281;SDS011;5186;59.472;18.048;2024-02-23T07:51:39;18.10;;;11.63;;
10281;SDS011;5186;59.472;18.048;2024-02-23T07:54:05;23.23;;;11.30;;
10281;SDS011;5186;59.472;18.048;2024-02-23T07:56:30;19.20;;;11.17;;
10281;SDS011;5186;59.472;18.048;2024-02-23T07:58:56;18.33;;;9.77;;
10281;SDS011;5186;59.472;18.048;2024-02-23T08:01:22;14.70;;;9.57;;
10281;SDS011;5186;59.472;18.048;2024-02-23T08:03:48;16.33;;;9.83;;
10281;SDS011;5186;59.472;18.048;2024-02-23T08:06:14;15.37;;;9.07;;
10281;SDS011;5186;59.472;18.048;2024-02-23T08:08:39;13.60;;;8.53;;
10281;SDS011;5186;59.472;18.048;2024-02-23T08:11:05;13.43;;;7.97;;
10281;SDS011;5186;59.472;18.048;2024-02-23T08:13:31;12.80;;;7.20;;
10281;SDS011;5186;59.472;18.048;2024-02-23T08:15:57;11.63;;;7.50;;
10281;SDS011;5186;59.472;18.048;2024-02-23T08:18:23;10.90;;;7.07;;
10281;SDS011;5186;59.472;18.048;2024-02-23T08:20:48;10.87;;;7.17;;
10281;SDS011;5186;59.472;18.048;2024-02-23T08:23:14;11.67;;;7.67;;
10281;SDS011;5186;59.472;18.048;2024-02-23T08:25:40;12.40;;;8.00;;
10281;SDS011;5186;59.472;18.048;2024-02-23T08:28:06;11.47;;;7.83;;
10281;SDS011;5186;59.472;18.048;2024-02-23T08:30:32;13.40;;;7.87;;
10281;SDS011;5186;59.472;18.048;2024-02-23T08:32:58;13.50;;;7.73;;
10281;SDS011;5186;59.472;18.048;2024-02-23T08:35:24;13.43;;;8.23;;
10281;SDS011;5186;59.472;18.048;2024-02-23T08:37:50;13.80;;;7.67;;
10281;SDS011;5186;59.472;18.048;2024-02-23T08:40:16;14.47;;;8.73;;
10281;SDS011;5186;59.472;18.048;2024-02-23T08:42:41;11.43;;;8.23;;
10281;SDS011;5186;59.472;18.048;2024-02-23T08:45:07;15.80;;;9.47;;
10281;SDS011;5186;59.472;18.048;2024-02-23T08:47:35;15.10;;;9.40;;
10281;SDS011;5186;59.472;18.048;2024-02-23T08:50:00;14.73;;;9.37;;
10281;SDS011;5186;59.472;18.048;2024-02-23T08:52:27;16.63;;;10.57;;
10281;SDS011;5186;59.472;18.048;2024-02-23T08:54:53;17.17;;;9.93;;
10281;SDS011;5186;59.472;18.048;2024-02-23T08:57:19;16.53;;;10.00;;
10281;SDS011;5186;59.472;18.048;2024-02-23T08:59:45;15.93;;;10.00;;
10281;SDS011;5186;59.472;18.048;2024-02-23T09:02:11;14.33;;;9.07;;
10281;SDS011;5186;59.472;18.048;2024-02-23T09:04:37;15.50;;;9.33;;
10281;SDS011;5186;59.472;18.048;2024-02-23T09:07:03;16.53;;;9.40;;
10281;SDS011;5186;59.472;18.048;2024-02-23T09:09:28;12.07;;;8.63;;
10281;SDS011;5186;59.472;18.048;2024-02-23T09:11:55;13.20;;;8.27;;
10281;SDS011;5186;59.472;18.048;2024-02-23T09:14:20;12.47;;;8.33;;
10281;SDS011;5186;59.472;18.048;2024-02-23T09:16:46;11.23;;;7.77;;
10281;SDS011;5186;59.472;18.048;2024-02-23T09:19:12;12.67;;;7.97;;
10281;SDS011;5186;59.472;18.048;2024-02-23T09:21:38;12.27;;;8.03;;
10281;SDS011;5186;59.472;18.048;2024-02-23T09:24:04;12.90;;;7.90;;
10281;SDS011;5186;59.472;18.048;2024-02-23T09:26:30;11.83;;;7.73;;
10281;SDS011;5186;59.472;18.048;2024-02-23T09:28:56;11.50;;;8.27;;
10281;SDS011;5186;59.472;18.048;2024-02-23T09:31:21;13.47;;;8.37;;
10281;SDS011;5186;59.472;18.048;2024-02-23T09:33:47;14.77;;;8.60;;
10281;SDS011;5186;59.472;18.048;2024-02-23T09:36:16;13.10;;;8.30;;
10281;SDS011;5186;59.472;18.048;2024-02-23T09:38:42;11.17;;;7.77;;
10281;SDS011;5186;59.472;18.048;2024-02-23T09:41:11;13.53;;;8.20;;
10281;SDS011;5186;59.472;18.048;2024-02-23T09:43:44;14.00;;;8.27;;
10281;SDS011;5186;59.472;18.048;2024-02-23T09:46:11;11.63;;;8.37;;
10281;SDS011;5186;59.472;18.048;2024-02-23T09:48:38;14.17;;;8.13;;
10281;SDS011;5186;59.472;18.048;2024-02-23T09:51:04;13.03;;;8.43;;
10281;SDS011;5186;59.472;18.048;2024-02-23T09:53:31;12.10;;;8.83;;
10281;SDS011;5186;59.472;18.048;2024-02-23T09:55:59;12.13;;;8.30;;
10281;SDS011;5186;59.472;18.048;2024-02-23T09:58:25;14.67;;;8.53;;
10281;SDS011;5186;59.472;18.048;2024-02-23T10:00:54;14.43;;;8.57;;
10281;SDS011;5186;59.472;18.048;2024-02-23T10:03:22;13.10;;;8.23;;
10281;SDS011;5186;59.472;18.048;2024-02-23T10:05:51;12.43;;;8.60;;
10281;SDS011;5186;59.472;18.048;2024-02-23T10:08:17;11.97;;;8.60;;
10281;SDS011;5186;59.472;18.048;2024-02-23T10:10:45;10.40;;;7.30;;
10281;SDS011;5186;59.472;18.048;2024-02-23T10:13:11;10.80;;;7.47;;
10281;SDS011;5186;59.472;18.048;2024-02-23T10:15:37;9.00;;;6.57;;
10281;SDS011;5186;59.472;18.048;2024-02-23T10:18:03;10.53;;;6.67;;
10281;SDS011;5186;59.472;18.048;2024-02-23T10:20:29;8.43;;;6.33;;
10281;SDS011;5186;59.472;18.048;2024-02-23T10:22:56;8.03;;;6.10;;
10281;SDS011;5186;59.472;18.048;2024-02-23T10:25:22;7.37;;;5.63;;
10281;SDS011;5186;59.472;18.048;2024-02-23T10:27:47;7.87;;;5.67;;
10281;SDS011;5186;59.472;18.048;2024-02-23T10:30:13;9.17;;;5.27;;
10281;SDS011;5186;59.472;18.048;2024-02-23T10:32:42;7.50;;;4.50;;
10281;SDS011;5186;59.472;18.048;2024-02-23T10:35:17;8.43;;;4.77;;
10281;SDS011;5186;59.472;18.048;2024-02-23T10:37:43;7.23;;;4.20;;
10281;SDS011;5186;59.472;18.048;2024-02-23T10:40:11;7.60;;;4.30;;
10281;SDS011;5186;59.472;18.048;2024-02-23T10:42:38;7.47;;;4.10;;
10281;SDS011;5186;59.472;18.048;2024-02-23T10:45:06;6.60;;;3.93;;
10281;SDS011;5186;59.472;18.048;2024-02-23T10:47:33;4.97;;;3.50;;
10281;SDS011;5186;59.472;18.048;2024-02-23T10:50:00;4.30;;;3.00;;
10281;SDS011;5186;59.472;18.048;2024-02-23T10:52:27;4.20;;;2.63;;
10281;SDS011;5186;59.472;18.048;2024-02-23T10:54:53;3.00;;;1.90;;
10281;SDS011;5186;59.472;18.048;2024-02-23T10:57:20;3.30;;;1.83;;
10281;SDS011;5186;59.472;18.048;2024-02-23T10:59:46;6.40;;;1.60;;
10281;SDS011;5186;59.472;18.048;2024-02-23T11:02:13;2.10;;;1.60;;
10281;SDS011;5186;59.472;18.048;2024-02-23T11:04:48;4.00;;;1.70;;
10281;SDS011;5186;59.472;18.048;2024-02-23T11:07:15;2.80;;;1.40;;
10281;SDS011;5186;59.472;18.048;2024-02-23T11:09:43;3.00;;;1.53;;
10281;SDS011;5186;59.472;18.048;2024-02-23T11:12:35;2.10;;;1.30;;
10281;SDS011;5186;59.472;18.048;2024-02-23T11:15:01;2.93;;;1.30;;
10281;SDS011;5186;59.472;18.048;2024-02-23T11:17:28;1.83;;;1.20;;
10281;SDS011;5186;59.472;18.048;2024-02-23T11:19:55;2.73;;;1.03;;
10281;SDS011;5186;59.472;18.048;2024-02-23T11:22:25;2.40;;;0.93;;
10281;SDS011;5186;59.472;18.048;2024-02-23T11:24:51;1.93;;;0.87;;
10281;SDS011;5186;59.472;18.048;2024-02-23T11:27:17;1.03;;;0.80;;
10281;SDS011;5186;59.472;18.048;2024-02-23T11:29:46;2.57;;;1.07;;
10281;SDS011;5186;59.472;18.048;2024-02-23T11:32:15;2.20;;;0.73;;
10281;SDS011;5186;59.472;18.048;2024-02-23T11:34:42;3.17;;;0.73;;
10281;SDS011;5186;59.472;18.048;2024-02-23T11:37:19;2.63;;;0.80;;
10281;SDS011;5186;59.472;18.048;2024-02-23T11:39:45;2.07;;;0.70;;
10281;SDS011;5186;59.472;18.048;2024-02-23T11:42:11;0.63;;;0.50;;
10281;SDS011;5186;59.472;18.048;2024-02-23T11:44:37;1.77;;;0.93;;
10281;SDS011;5186;59.472;18.048;2024-02-23T11:47:03;1.07;;;0.60;;
10281;SDS011;5186;59.472;18.048;2024-02-23T11:49:29;0.60;;;0.50;;
10281;SDS011;5186;59.472;18.048;2024-02-23T11:51:55;2.93;;;0.80;;
10281;SDS011;5186;59.472;18.048;2024-02-23T11:54:22;0.97;;;0.40;;
10281;SDS011;5186;59.472;18.048;2024-02-23T11:56:48;1.27;;;0.50;;
10281;SDS011;5186;59.472;18.048;2024-02-23T11:59:14;1.63;;;0.77;;
10281;SDS011;5186;59.472;18.048;2024-02-23T12:01:41;1.63;;;0.63;;
10281;SDS011;5186;59.472;18.048;2024-02-23T12:04:07;3.23;;;0.70;;
10281;SDS011;5186;59.472;18.048;2024-02-23T12:06:33;2.83;;;0.70;;
10281;SDS011;5186;59.472;18.048;2024-02-23T12:08:59;0.80;;;0.40;;
10281;SDS011;5186;59.472;18.048;2024-02-23T12:11:26;3.13;;;0.60;;
10281;SDS011;5186;59.472;18.048;2024-02-23T12:13:52;3.03;;;0.77;;
10281;SDS011;5186;59.472;18.048;2024-02-23T12:16:20;1.03;;;0.40;;
10281;SDS011;5186;59.472;18.048;2024-02-23T12:18:52;2.13;;;0.60;;
10281;SDS011;5186;59.472;18.048;2024-02-23T12:21:22;2.20;;;0.70;;
10281;SDS011;5186;59.472;18.048;2024-02-23T12:23:50;3.07;;;0.90;;
10281;SDS011;5186;59.472;18.048;2024-02-23T12:26:16;1.27;;;0.70;;
10281;SDS011;5186;59.472;18.048;2024-02-23T12:28:42;2.10;;;0.80;;
10281;SDS011;5186;59.472;18.048;2024-02-23T12:31:09;3.50;;;0.70;;
10281;SDS011;5186;59.472;18.048;2024-02-23T12:33:36;2.73;;;0.70;;
10281;SDS011;5186;59.472;18.048;2024-02-23T12:36:03;2.80;;;0.50;;
10281;SDS011;5186;59.472;18.048;2024-02-23T12:38:30;4.13;;;0.70;;
10281;SDS011;5186;59.472;18.048;2024-02-23T12:40:56;2.77;;;0.77;;
10281;SDS011;5186;59.472;18.048;2024-02-23T12:43:22;1.73;;;0.53;;
10281;SDS011;5186;59.472;18.048;2024-02-23T12:45:52;1.83;;;0.70;;
10281;SDS011;5186;59.472;18.048;2024-02-23T12:48:19;2.10;;;0.80;;
10281;SDS011;5186;59.472;18.048;2024-02-23T12:50:46;2.03;;;0.60;;
10281;SDS011;5186;59.472;18.048;2024-02-23T12:56:05;4.03;;;0.63;;
10281;SDS011;5186;59.472;18.048;2024-02-23T12:58:36;2.37;;;1.00;;
10281;SDS011;5186;59.472;18.048;2024-02-23T13:01:09;2.10;;;0.80;;
10281;SDS011;5186;59.472;18.048;2024-02-23T13:03:35;4.37;;;0.80;;
10281;SDS011;5186;59.472;18.048;2024-02-23T13:06:03;2.87;;;0.50;;
10281;SDS011;5186;59.472;18.048;2024-02-23T13:08:29;1.13;;;0.57;;
10281;SDS011;5186;59.472;18.048;2024-02-23T13:10:56;4.07;;;0.70;;
10281;SDS011;5186;59.472;18.048;2024-02-23T13:13:22;5.60;;;1.03;;
10281;SDS011;5186;59.472;18.048;2024-02-23T13:15:49;2.40;;;1.03;;
10281;SDS011;5186;59.472;18.048;2024-02-23T13:18:15;3.50;;;0.60;;
10281;SDS011;5186;59.472;18.048;2024-02-23T13:20:40;2.83;;;0.67;;
10281;SDS011;5186;59.472;18.048;2024-02-23T13:23:06;3.87;;;0.70;;
10281;SDS011;5186;59.472;18.048;2024-02-23T13:25:34;3.93;;;0.70;;
10281;SDS011;5186;59.472;18.048;2024-02-23T13:28:00;3.43;;;0.70;;
10281;SDS011;5186;59.472;18.048;2024-02-23T13:30:26;4.07;;;0.90;;
10281;SDS011;5186;59.472;18.048;2024-02-23T13:32:52;4.53;;;0.97;;
10281;SDS011;5186;59.472;18.048;2024-02-23T13:35:18;3.80;;;0.73;;
10281;SDS011;5186;59.472;18.048;2024-02-23T13:37:44;1.60;;;0.70;;
10281;SDS011;5186;59.472;18.048;2024-02-23T13:40:09;1.87;;;0.80;;
10281;SDS011;5186;59.472;18.048;2024-02-23T13:42:36;3.83;;;0.67;;
10281;SDS011;5186;59.472;18.048;2024-02-23T13:45:06;5.67;;;1.20;;
10281;SDS011;5186;59.472;18.048;2024-02-23T13:47:32;1.93;;;0.60;;
10281;SDS011;5186;59.472;18.048;2024-02-23T13:49:59;3.90;;;1.03;;
10281;SDS011;5186;59.472;18.048;2024-02-23T13:52:24;5.90;;;0.90;;
10281;SDS011;5186;59.472;18.048;2024-02-23T13:54:50;5.43;;;0.90;;
10281;SDS011;5186;59.472;18.048;2024-02-23T13:57:16;2.73;;;0.80;;
10281;SDS011;5186;59.472;18.048;2024-02-23T13:59:42;2.87;;;0.80;;
10281;SDS011;5186;59.472;18.048;2024-02-23T14:02:07;4.53;;;1.13;;
10281;SDS011;5186;59.472;18.048;2024-02-23T14:04:33;1.83;;;0.70;;
10281;SDS011;5186;59.472;18.048;2024-02-23T14:06:58;5.37;;;0.90;;
10281;SDS011;5186;59.472;18.048;2024-02-23T14:09:24;3.97;;;0.70;;
10281;SDS011;5186;59.472;18.048;2024-02-23T14:11:50;2.70;;;0.70;;
10281;SDS011;5186;59.472;18.048;2024-02-23T14:14:15;6.33;;;0.90;;
10281;SDS011;5186;59.472;18.048;2024-02-23T14:16:41;3.10;;;0.70;;
10281;SDS011;5186;59.472;18.048;2024-02-23T14:19:07;4.90;;;0.70;;
10281;SDS011;5186;59.472;18.048;2024-02-23T14:21:33;4.17;;;0.70;;
10281;SDS011;5186;59.472;18.048;2024-02-23T14:24:01;4.03;;;0.83;;
10281;SDS011;5186;59.472;18.048;2024-02-23T14:26:27;2.73;;;0.80;;
